Terminal Aerodrome Forecast
Issued by NWS Buffalo, NY

Home | Current Version | Previous Version | Text Only | Print | Product List | Glossary On
Versions: 1 2 3 4 5 6 7 8 9 10 11 12 13 14 15 16 17 18 19 20 21 22 23 24 25 26 27
000
FTUS41 KBUF 282300 RRA
TAFART
TAF
KART 282347Z 2900/2924 29006KT P6SM VCSH BKN035 BKN050
      TEMPO 2900/2904 4SM -SHSN BKN025
     FM290500 00000KT P6SM BKN035
     FM291000 11004KT P6SM BKN030 OVC130
     FM291400 16007KT P6SM BKN035 OVC080
     FM291900 17008KT P6SM VCSH BKN045 OVC050=

USA.gov is the U.S. government's official web portal to all federal, state and local government web resources and services.